sensor_id;sensor_type;location;lat;lon;timestamp;P1;durP1;ratioP1;P2;durP2;ratioP2
37431;SDS011;23292;51.300;6.252;2023-02-15T00:02:25;48.45;;;23.65;;
37431;SDS011;23292;51.300;6.252;2023-02-15T00:04:52;52.50;;;25.20;;
37431;SDS011;23292;51.300;6.252;2023-02-15T00:07:19;48.15;;;24.58;;
37431;SDS011;23292;51.300;6.252;2023-02-15T00:09:46;49.25;;;24.58;;
37431;SDS011;23292;51.300;6.252;2023-02-15T00:12:13;47.80;;;23.13;;
37431;SDS011;23292;51.300;6.252;2023-02-15T00:14:40;51.28;;;23.70;;
37431;SDS011;23292;51.300;6.252;2023-02-15T00:17:08;55.63;;;23.80;;
37431;SDS011;23292;51.300;6.252;2023-02-15T00:19:35;51.40;;;23.90;;
37431;SDS011;23292;51.300;6.252;2023-02-15T00:22:01;52.30;;;24.33;;
37431;SDS011;23292;51.300;6.252;2023-02-15T00:24:28;50.28;;;24.67;;
37431;SDS011;23292;51.300;6.252;2023-02-15T00:26:55;51.17;;;25.05;;
37431;SDS011;23292;51.300;6.252;2023-02-15T00:29:21;53.10;;;24.17;;
37431;SDS011;23292;51.300;6.252;2023-02-15T00:31:48;50.25;;;24.13;;
37431;SDS011;23292;51.300;6.252;2023-02-15T00:34:19;58.03;;;25.75;;
37431;SDS011;23292;51.300;6.252;2023-02-15T00:36:48;55.63;;;24.65;;
37431;SDS011;23292;51.300;6.252;2023-02-15T00:39:15;52.33;;;24.02;;
37431;SDS011;23292;51.300;6.252;2023-02-15T00:41:43;52.00;;;24.33;;
37431;SDS011;23292;51.300;6.252;2023-02-15T00:44:10;51.28;;;24.08;;
37431;SDS011;23292;51.300;6.252;2023-02-15T00:46:38;52.17;;;24.60;;
37431;SDS011;23292;51.300;6.252;2023-02-15T00:49:08;56.70;;;24.70;;
37431;SDS011;23292;51.300;6.252;2023-02-15T00:51:35;54.53;;;23.83;;
37431;SDS011;23292;51.300;6.252;2023-02-15T00:54:01;49.83;;;24.77;;
37431;SDS011;23292;51.300;6.252;2023-02-15T00:56:28;51.42;;;23.65;;
37431;SDS011;23292;51.300;6.252;2023-02-15T00:58:55;54.92;;;24.10;;
37431;SDS011;23292;51.300;6.252;2023-02-15T01:01:22;48.78;;;23.65;;
37431;SDS011;23292;51.300;6.252;2023-02-15T01:03:50;52.35;;;25.00;;
37431;SDS011;23292;51.300;6.252;2023-02-15T01:06:17;54.20;;;24.02;;
37431;SDS011;23292;51.300;6.252;2023-02-15T01:08:44;51.58;;;23.23;;
37431;SDS011;23292;51.300;6.252;2023-02-15T01:11:16;52.13;;;23.45;;
37431;SDS011;23292;51.300;6.252;2023-02-15T01:13:49;48.35;;;23.95;;
37431;SDS011;23292;51.300;6.252;2023-02-15T01:16:18;50.67;;;23.98;;
37431;SDS011;23292;51.300;6.252;2023-02-15T01:18:45;54.70;;;24.73;;
37431;SDS011;23292;51.300;6.252;2023-02-15T01:21:15;54.45;;;25.70;;
37431;SDS011;23292;51.300;6.252;2023-02-15T01:23:44;56.47;;;25.15;;
37431;SDS011;23292;51.300;6.252;2023-02-15T01:26:11;52.92;;;25.48;;
37431;SDS011;23292;51.300;6.252;2023-02-15T01:28:38;60.13;;;25.95;;
37431;SDS011;23292;51.300;6.252;2023-02-15T01:31:09;62.80;;;27.27;;
37431;SDS011;23292;51.300;6.252;2023-02-15T01:33:38;56.10;;;25.92;;
37431;SDS011;23292;51.300;6.252;2023-02-15T01:36:05;60.13;;;25.88;;
37431;SDS011;23292;51.300;6.252;2023-02-15T01:38:32;60.78;;;26.20;;
37431;SDS011;23292;51.300;6.252;2023-02-15T01:41:00;56.92;;;26.25;;
37431;SDS011;23292;51.300;6.252;2023-02-15T01:43:47;53.53;;;25.27;;
37431;SDS011;23292;51.300;6.252;2023-02-15T01:46:26;58.13;;;25.52;;
37431;SDS011;23292;51.300;6.252;2023-02-15T01:49:11;55.05;;;25.40;;
37431;SDS011;23292;51.300;6.252;2023-02-15T01:51:44;60.20;;;26.75;;
37431;SDS011;23292;51.300;6.252;2023-02-15T01:54:23;65.07;;;25.95;;
37431;SDS011;23292;51.300;6.252;2023-02-15T01:56:55;58.33;;;26.15;;
37431;SDS011;23292;51.300;6.252;2023-02-15T01:59:29;61.15;;;27.02;;
37431;SDS011;23292;51.300;6.252;2023-02-15T02:01:59;59.63;;;27.88;;
37431;SDS011;23292;51.300;6.252;2023-02-15T02:04:33;66.95;;;28.13;;
37431;SDS011;23292;51.300;6.252;2023-02-15T02:07:06;52.20;;;25.27;;
37431;SDS011;23292;51.300;6.252;2023-02-15T02:09:35;68.13;;;27.27;;
37431;SDS011;23292;51.300;6.252;2023-02-15T02:12:03;65.68;;;27.58;;
37431;SDS011;23292;51.300;6.252;2023-02-15T02:14:30;63.00;;;28.38;;
37431;SDS011;23292;51.300;6.252;2023-02-15T02:16:58;62.05;;;27.13;;
37431;SDS011;23292;51.300;6.252;2023-02-15T02:33:39;59.78;;;28.70;;
37431;SDS011;23292;51.300;6.252;2023-02-15T02:36:35;63.13;;;28.65;;
37431;SDS011;23292;51.300;6.252;2023-02-15T02:39:12;64.23;;;27.72;;
37431;SDS011;23292;51.300;6.252;2023-02-15T02:44:33;62.87;;;28.27;;
37431;SDS011;23292;51.300;6.252;2023-02-15T02:47:34;66.15;;;28.55;;
37431;SDS011;23292;51.300;6.252;2023-02-15T02:50:06;65.07;;;28.63;;
37431;SDS011;23292;51.300;6.252;2023-02-15T02:52:39;66.43;;;29.13;;
37431;SDS011;23292;51.300;6.252;2023-02-15T02:55:13;66.07;;;29.60;;
37431;SDS011;23292;51.300;6.252;2023-02-15T03:00:55;65.43;;;28.25;;
37431;SDS011;23292;51.300;6.252;2023-02-15T03:03:37;68.88;;;28.65;;
37431;SDS011;23292;51.300;6.252;2023-02-15T03:06:15;67.07;;;26.90;;
37431;SDS011;23292;51.300;6.252;2023-02-15T03:08:47;63.95;;;26.85;;
37431;SDS011;23292;51.300;6.252;2023-02-15T03:11:17;67.93;;;27.80;;
37431;SDS011;23292;51.300;6.252;2023-02-15T03:13:44;65.43;;;27.25;;
37431;SDS011;23292;51.300;6.252;2023-02-15T03:16:14;62.00;;;27.77;;
37431;SDS011;23292;51.300;6.252;2023-02-15T03:19:03;63.42;;;28.17;;
37431;SDS011;23292;51.300;6.252;2023-02-15T03:21:47;66.80;;;28.13;;
37431;SDS011;23292;51.300;6.252;2023-02-15T03:24:25;68.18;;;27.58;;
37431;SDS011;23292;51.300;6.252;2023-02-15T03:26:58;67.63;;;27.77;;
37431;SDS011;23292;51.300;6.252;2023-02-15T03:29:26;64.20;;;27.92;;
37431;SDS011;23292;51.300;6.252;2023-02-15T03:31:56;71.10;;;28.63;;
37431;SDS011;23292;51.300;6.252;2023-02-15T03:34:25;67.47;;;29.17;;
37431;SDS011;23292;51.300;6.252;2023-02-15T03:43:12;59.30;;;26.60;;
37431;SDS011;23292;51.300;6.252;2023-02-15T03:45:55;70.10;;;28.38;;
37431;SDS011;23292;51.300;6.252;2023-02-15T03:48:27;72.85;;;29.92;;
37431;SDS011;23292;51.300;6.252;2023-02-15T03:51:03;71.05;;;28.92;;
37431;SDS011;23292;51.300;6.252;2023-02-15T03:53:52;72.40;;;30.20;;
37431;SDS011;23292;51.300;6.252;2023-02-15T03:56:20;77.18;;;31.00;;
37431;SDS011;23292;51.300;6.252;2023-02-15T03:58:47;72.93;;;31.85;;
37431;SDS011;23292;51.300;6.252;2023-02-15T04:07:02;78.72;;;31.48;;
37431;SDS011;23292;51.300;6.252;2023-02-15T04:09:30;71.72;;;29.95;;
37431;SDS011;23292;51.300;6.252;2023-02-15T04:12:15;86.22;;;32.88;;
37431;SDS011;23292;51.300;6.252;2023-02-15T04:14:42;75.20;;;30.58;;
37431;SDS011;23292;51.300;6.252;2023-02-15T04:17:27;76.90;;;30.95;;
37431;SDS011;23292;51.300;6.252;2023-02-15T04:19:54;78.78;;;31.65;;
37431;SDS011;23292;51.300;6.252;2023-02-15T04:22:39;70.70;;;30.27;;
37431;SDS011;23292;51.300;6.252;2023-02-15T04:25:24;78.65;;;31.80;;
37431;SDS011;23292;51.300;6.252;2023-02-15T04:27:52;78.55;;;30.38;;
37431;SDS011;23292;51.300;6.252;2023-02-15T04:30:21;72.93;;;30.60;;
37431;SDS011;23292;51.300;6.252;2023-02-15T04:32:49;75.60;;;30.38;;
37431;SDS011;23292;51.300;6.252;2023-02-15T04:35:16;72.78;;;30.45;;
37431;SDS011;23292;51.300;6.252;2023-02-15T04:37:43;79.45;;;31.73;;
37431;SDS011;23292;51.300;6.252;2023-02-15T04:40:11;80.07;;;32.97;;
37431;SDS011;23292;51.300;6.252;2023-02-15T04:42:39;70.75;;;31.58;;
37431;SDS011;23292;51.300;6.252;2023-02-15T04:45:06;80.40;;;33.08;;
37431;SDS011;23292;51.300;6.252;2023-02-15T04:47:33;75.07;;;31.88;;
37431;SDS011;23292;51.300;6.252;2023-02-15T04:50:00;78.78;;;32.80;;
37431;SDS011;23292;51.300;6.252;2023-02-15T04:52:27;81.93;;;32.40;;
37431;SDS011;23292;51.300;6.252;2023-02-15T04:54:54;82.78;;;30.98;;
37431;SDS011;23292;51.300;6.252;2023-02-15T04:57:20;73.18;;;30.95;;
37431;SDS011;23292;51.300;6.252;2023-02-15T04:59:47;78.78;;;30.90;;
37431;SDS011;23292;51.300;6.252;2023-02-15T05:02:14;74.50;;;30.95;;
37431;SDS011;23292;51.300;6.252;2023-02-15T05:04:40;69.47;;;29.70;;
37431;SDS011;23292;51.300;6.252;2023-02-15T05:07:07;72.90;;;30.30;;
37431;SDS011;23292;51.300;6.252;2023-02-15T05:09:34;74.75;;;31.23;;
37431;SDS011;23292;51.300;6.252;2023-02-15T05:12:00;78.70;;;32.03;;
37431;SDS011;23292;51.300;6.252;2023-02-15T05:14:27;73.78;;;29.98;;
37431;SDS011;23292;51.300;6.252;2023-02-15T05:16:54;81.88;;;33.08;;
37431;SDS011;23292;51.300;6.252;2023-02-15T05:19:21;80.85;;;32.22;;
37431;SDS011;23292;51.300;6.252;2023-02-15T05:21:50;82.07;;;31.50;;
37431;SDS011;23292;51.300;6.252;2023-02-15T05:24:17;78.60;;;30.40;;
37431;SDS011;23292;51.300;6.252;2023-02-15T05:27:02;75.07;;;30.80;;
37431;SDS011;23292;51.300;6.252;2023-02-15T05:29:47;74.53;;;31.40;;
37431;SDS011;23292;51.300;6.252;2023-02-15T05:32:14;79.47;;;32.28;;
37431;SDS011;23292;51.300;6.252;2023-02-15T05:34:41;77.88;;;30.75;;
37431;SDS011;23292;51.300;6.252;2023-02-15T05:37:08;78.63;;;31.13;;
37431;SDS011;23292;51.300;6.252;2023-02-15T05:39:35;71.15;;;30.60;;
37431;SDS011;23292;51.300;6.252;2023-02-15T05:42:01;82.15;;;30.73;;
37431;SDS011;23292;51.300;6.252;2023-02-15T05:44:29;82.68;;;30.75;;
37431;SDS011;23292;51.300;6.252;2023-02-15T05:46:55;80.20;;;33.10;;
37431;SDS011;23292;51.300;6.252;2023-02-15T05:49:22;77.50;;;31.73;;
37431;SDS011;23292;51.300;6.252;2023-02-15T05:51:49;75.68;;;31.05;;
37431;SDS011;23292;51.300;6.252;2023-02-15T05:54:15;75.03;;;31.20;;
37431;SDS011;23292;51.300;6.252;2023-02-15T05:56:42;74.32;;;29.52;;
37431;SDS011;23292;51.300;6.252;2023-02-15T05:59:10;77.30;;;30.10;;
37431;SDS011;23292;51.300;6.252;2023-02-15T06:01:37;80.85;;;31.45;;
37431;SDS011;23292;51.300;6.252;2023-02-15T06:04:03;75.65;;;31.05;;
37431;SDS011;23292;51.300;6.252;2023-02-15T06:06:30;75.63;;;30.45;;
37431;SDS011;23292;51.300;6.252;2023-02-15T06:08:56;80.57;;;31.45;;
37431;SDS011;23292;51.300;6.252;2023-02-15T06:11:23;85.07;;;32.20;;
37431;SDS011;23292;51.300;6.252;2023-02-15T06:13:50;77.30;;;31.10;;
37431;SDS011;23292;51.300;6.252;2023-02-15T06:16:17;77.65;;;31.00;;
37431;SDS011;23292;51.300;6.252;2023-02-15T06:18:43;77.97;;;30.65;;
37431;SDS011;23292;51.300;6.252;2023-02-15T06:21:10;83.55;;;32.22;;
37431;SDS011;23292;51.300;6.252;2023-02-15T06:23:37;79.57;;;31.77;;
37431;SDS011;23292;51.300;6.252;2023-02-15T06:26:04;80.18;;;32.17;;
37431;SDS011;23292;51.300;6.252;2023-02-15T06:28:30;77.93;;;31.55;;
37431;SDS011;23292;51.300;6.252;2023-02-15T06:30:57;80.95;;;31.90;;
37431;SDS011;23292;51.300;6.252;2023-02-15T06:33:24;78.97;;;32.15;;
37431;SDS011;23292;51.300;6.252;2023-02-15T06:35:50;90.88;;;33.60;;
37431;SDS011;23292;51.300;6.252;2023-02-15T06:38:17;88.88;;;32.50;;
37431;SDS011;23292;51.300;6.252;2023-02-15T06:40:44;84.07;;;32.08;;
37431;SDS011;23292;51.300;6.252;2023-02-15T06:43:10;90.05;;;34.25;;
37431;SDS011;23292;51.300;6.252;2023-02-15T06:45:37;90.13;;;33.55;;
37431;SDS011;23292;51.300;6.252;2023-02-15T06:48:04;88.88;;;34.03;;
37431;SDS011;23292;51.300;6.252;2023-02-15T06:50:33;84.65;;;32.80;;
37431;SDS011;23292;51.300;6.252;2023-02-15T06:52:59;91.50;;;33.40;;
37431;SDS011;23292;51.300;6.252;2023-02-15T06:55:26;88.38;;;35.10;;
37431;SDS011;23292;51.300;6.252;2023-02-15T06:57:53;91.40;;;34.25;;
37431;SDS011;23292;51.300;6.252;2023-02-15T07:00:20;83.00;;;32.97;;
37431;SDS011;23292;51.300;6.252;2023-02-15T07:02:55;88.13;;;34.67;;
37431;SDS011;23292;51.300;6.252;2023-02-15T07:05:24;90.22;;;33.95;;
37431;SDS011;23292;51.300;6.252;2023-02-15T07:07:57;88.68;;;33.08;;
37431;SDS011;23292;51.300;6.252;2023-02-15T07:10:24;93.82;;;33.80;;
37431;SDS011;23292;51.300;6.252;2023-02-15T07:12:51;91.22;;;34.50;;
37431;SDS011;23292;51.300;6.252;2023-02-15T07:15:18;80.45;;;33.97;;
37431;SDS011;23292;51.300;6.252;2023-02-15T07:17:47;83.57;;;33.15;;
37431;SDS011;23292;51.300;6.252;2023-02-15T07:20:16;85.07;;;31.48;;
37431;SDS011;23292;51.300;6.252;2023-02-15T07:22:45;89.68;;;33.58;;
37431;SDS011;23292;51.300;6.252;2023-02-15T07:25:12;99.22;;;34.67;;
37431;SDS011;23292;51.300;6.252;2023-02-15T07:27:39;91.25;;;36.95;;
37431;SDS011;23292;51.300;6.252;2023-02-15T07:30:07;96.78;;;34.78;;
37431;SDS011;23292;51.300;6.252;2023-02-15T07:32:36;86.20;;;33.53;;
37431;SDS011;23292;51.300;6.252;2023-02-15T07:35:23;89.88;;;32.00;;
37431;SDS011;23292;51.300;6.252;2023-02-15T07:37:50;92.82;;;34.95;;
37431;SDS011;23292;51.300;6.252;2023-02-15T07:40:16;96.97;;;34.33;;
37431;SDS011;23292;51.300;6.252;2023-02-15T07:42:43;92.13;;;33.97;;
37431;SDS011;23292;51.300;6.252;2023-02-15T07:45:10;96.25;;;34.83;;
37431;SDS011;23292;51.300;6.252;2023-02-15T07:47:36;89.50;;;34.88;;
37431;SDS011;23292;51.300;6.252;2023-02-15T07:50:03;100.72;;;36.08;;
37431;SDS011;23292;51.300;6.252;2023-02-15T07:52:30;96.38;;;35.33;;
37431;SDS011;23292;51.300;6.252;2023-02-15T07:54:57;100.65;;;37.28;;
37431;SDS011;23292;51.300;6.252;2023-02-15T07:57:23;96.40;;;36.30;;
37431;SDS011;23292;51.300;6.252;2023-02-15T07:59:50;95.95;;;35.75;;
37431;SDS011;23292;51.300;6.252;2023-02-15T08:02:17;98.88;;;36.60;;
37431;SDS011;23292;51.300;6.252;2023-02-15T08:04:43;93.95;;;36.33;;
37431;SDS011;23292;51.300;6.252;2023-02-15T08:07:10;95.63;;;36.58;;
37431;SDS011;23292;51.300;6.252;2023-02-15T08:09:37;97.80;;;36.10;;
37431;SDS011;23292;51.300;6.252;2023-02-15T08:12:03;98.30;;;35.75;;
37431;SDS011;23292;51.300;6.252;2023-02-15T08:14:30;93.85;;;34.78;;
37431;SDS011;23292;51.300;6.252;2023-02-15T08:16:58;93.93;;;35.25;;
37431;SDS011;23292;51.300;6.252;2023-02-15T08:19:29;85.55;;;34.40;;
37431;SDS011;23292;51.300;6.252;2023-02-15T08:22:02;79.32;;;34.47;;
37431;SDS011;23292;51.300;6.252;2023-02-15T08:24:31;80.82;;;33.38;;
37431;SDS011;23292;51.300;6.252;2023-02-15T08:26:59;77.65;;;31.88;;
37431;SDS011;23292;51.300;6.252;2023-02-15T08:29:31;70.32;;;30.63;;
37431;SDS011;23292;51.300;6.252;2023-02-15T08:32:03;73.22;;;32.70;;
37431;SDS011;23292;51.300;6.252;2023-02-15T08:34:33;70.97;;;30.75;;
37431;SDS011;23292;51.300;6.252;2023-02-15T08:37:02;65.43;;;29.52;;
37431;SDS011;23292;51.300;6.252;2023-02-15T08:39:29;59.67;;;29.30;;
37431;SDS011;23292;51.300;6.252;2023-02-15T08:41:56;64.63;;;29.52;;
37431;SDS011;23292;51.300;6.252;2023-02-15T08:44:23;60.47;;;28.48;;
37431;SDS011;23292;51.300;6.252;2023-02-15T08:46:49;63.42;;;29.10;;
37431;SDS011;23292;51.300;6.252;2023-02-15T08:49:17;65.20;;;28.58;;
37431;SDS011;23292;51.300;6.252;2023-02-15T08:51:45;54.10;;;28.23;;
37431;SDS011;23292;51.300;6.252;2023-02-15T08:54:13;57.55;;;26.30;;
37431;SDS011;23292;51.300;6.252;2023-02-15T08:56:42;60.50;;;27.38;;
37431;SDS011;23292;51.300;6.252;2023-02-15T08:59:14;56.67;;;26.98;;
37431;SDS011;23292;51.300;6.252;2023-02-15T09:01:45;57.47;;;26.13;;
37431;SDS011;23292;51.300;6.252;2023-02-15T09:04:13;49.03;;;24.83;;
37431;SDS011;23292;51.300;6.252;2023-02-15T09:06:42;50.55;;;25.75;;
37431;SDS011;23292;51.300;6.252;2023-02-15T09:09:14;57.28;;;26.58;;
37431;SDS011;23292;51.300;6.252;2023-02-15T09:11:42;52.22;;;24.80;;
37431;SDS011;23292;51.300;6.252;2023-02-15T09:14:11;54.92;;;26.70;;
37431;SDS011;23292;51.300;6.252;2023-02-15T09:16:39;46.25;;;25.23;;
37431;SDS011;23292;51.300;6.252;2023-02-15T09:19:07;53.13;;;24.27;;
37431;SDS011;23292;51.300;6.252;2023-02-15T09:21:35;52.85;;;25.40;;
37431;SDS011;23292;51.300;6.252;2023-02-15T09:24:06;52.88;;;26.85;;
37431;SDS011;23292;51.300;6.252;2023-02-15T09:26:35;55.45;;;26.80;;
37431;SDS011;23292;51.300;6.252;2023-02-15T09:29:04;56.10;;;27.23;;
37431;SDS011;23292;51.300;6.252;2023-02-15T09:31:32;53.50;;;26.88;;
37431;SDS011;23292;51.300;6.252;2023-02-15T09:34:03;47.33;;;23.75;;
37431;SDS011;23292;51.300;6.252;2023-02-15T09:36:31;49.50;;;24.98;;
37431;SDS011;23292;51.300;6.252;2023-02-15T09:39:07;48.15;;;24.10;;
37431;SDS011;23292;51.300;6.252;2023-02-15T09:44:42;48.60;;;24.50;;
37431;SDS011;23292;51.300;6.252;2023-02-15T10:01:15;43.10;;;22.80;;
37431;SDS011;23292;51.300;6.252;2023-02-15T10:06:45;42.25;;;21.48;;
37431;SDS011;23292;51.300;6.252;2023-02-15T10:15:24;44.30;;;22.33;;
37431;SDS011;23292;51.300;6.252;2023-02-15T10:19:07;44.88;;;22.35;;
37431;SDS011;23292;51.300;6.252;2023-02-15T10:24:36;44.70;;;22.00;;
37431;SDS011;23292;51.300;6.252;2023-02-15T10:27:20;41.65;;;21.10;;
37431;SDS011;23292;51.300;6.252;2023-02-15T10:29:51;39.83;;;23.05;;
37431;SDS011;23292;51.300;6.252;2023-02-15T10:32:59;44.33;;;21.20;;
37431;SDS011;23292;51.300;6.252;2023-02-15T10:35:41;40.55;;;21.60;;
37431;SDS011;23292;51.300;6.252;2023-02-15T10:42:10;40.75;;;21.25;;
37431;SDS011;23292;51.300;6.252;2023-02-15T10:52:42;43.53;;;21.48;;
37431;SDS011;23292;51.300;6.252;2023-02-15T10:58:29;45.92;;;20.55;;
37431;SDS011;23292;51.300;6.252;2023-02-15T11:07:06;37.58;;;20.92;;
37431;SDS011;23292;51.300;6.252;2023-02-15T11:09:47;42.75;;;20.83;;
37431;SDS011;23292;51.300;6.252;2023-02-15T11:12:18;36.10;;;19.77;;
37431;SDS011;23292;51.300;6.252;2023-02-15T11:14:50;43.67;;;21.02;;
37431;SDS011;23292;51.300;6.252;2023-02-15T11:17:43;41.10;;;21.38;;
37431;SDS011;23292;51.300;6.252;2023-02-15T11:20:23;38.17;;;20.55;;
37431;SDS011;23292;51.300;6.252;2023-02-15T11:22:59;43.28;;;21.98;;
37431;SDS011;23292;51.300;6.252;2023-02-15T11:25:32;37.20;;;20.77;;
37431;SDS011;23292;51.300;6.252;2023-02-15T11:28:00;41.90;;;20.38;;
37431;SDS011;23292;51.300;6.252;2023-02-15T11:30:45;47.13;;;21.13;;
37431;SDS011;23292;51.300;6.252;2023-02-15T11:33:20;40.72;;;21.00;;
37431;SDS011;23292;51.300;6.252;2023-02-15T11:35:59;41.03;;;20.05;;
37431;SDS011;23292;51.300;6.252;2023-02-15T11:38:31;42.88;;;21.60;;
37431;SDS011;23292;51.300;6.252;2023-02-15T11:41:01;48.05;;;21.33;;
37431;SDS011;23292;51.300;6.252;2023-02-15T11:43:44;40.38;;;20.98;;
37431;SDS011;23292;51.300;6.252;2023-02-15T11:46:14;40.67;;;21.83;;
37431;SDS011;23292;51.300;6.252;2023-02-15T11:48:41;40.17;;;21.88;;
37431;SDS011;23292;51.300;6.252;2023-02-15T11:51:09;43.50;;;22.30;;
37431;SDS011;23292;51.300;6.252;2023-02-15T11:56:12;44.33;;;21.45;;
37431;SDS011;23292;51.300;6.252;2023-02-15T12:01:24;40.75;;;21.00;;
37431;SDS011;23292;51.300;6.252;2023-02-15T12:04:46;37.05;;;18.98;;
37431;SDS011;23292;51.300;6.252;2023-02-15T12:06:51;38.65;;;20.33;;
37431;SDS011;23292;51.300;6.252;2023-02-15T12:12:29;36.95;;;20.88;;
37431;SDS011;23292;51.300;6.252;2023-02-15T12:14:58;40.13;;;19.65;;
37431;SDS011;23292;51.300;6.252;2023-02-15T12:17:26;35.00;;;19.40;;
37431;SDS011;23292;51.300;6.252;2023-02-15T12:19:56;40.40;;;20.52;;
37431;SDS011;23292;51.300;6.252;2023-02-15T12:22:30;42.40;;;22.20;;
37431;SDS011;23292;51.300;6.252;2023-02-15T12:24:59;37.38;;;20.75;;
37431;SDS011;23292;51.300;6.252;2023-02-15T12:27:28;35.72;;;19.88;;
37431;SDS011;23292;51.300;6.252;2023-02-15T12:30:15;32.60;;;17.83;;
37431;SDS011;23292;51.300;6.252;2023-02-15T12:32:53;34.40;;;19.20;;
37431;SDS011;23292;51.300;6.252;2023-02-15T12:35:27;34.97;;;19.35;;
37431;SDS011;23292;51.300;6.252;2023-02-15T12:38:19;36.45;;;18.90;;
37431;SDS011;23292;51.300;6.252;2023-02-15T12:40:57;37.08;;;19.98;;
37431;SDS011;23292;51.300;6.252;2023-02-15T12:43:34;32.78;;;18.70;;
37431;SDS011;23292;51.300;6.252;2023-02-15T12:49:11;39.75;;;19.75;;
37431;SDS011;23292;51.300;6.252;2023-02-15T12:51:53;39.22;;;20.05;;
37431;SDS011;23292;51.300;6.252;2023-02-15T12:57:12;33.78;;;19.38;;
37431;SDS011;23292;51.300;6.252;2023-02-15T13:08:12;34.17;;;18.88;;
37431;SDS011;23292;51.300;6.252;2023-02-15T13:10:51;34.13;;;19.00;;
37431;SDS011;23292;51.300;6.252;2023-02-15T13:13:19;31.60;;;17.88;;
37431;SDS011;23292;51.300;6.252;2023-02-15T13:15:50;37.65;;;18.33;;
37431;SDS011;23292;51.300;6.252;2023-02-15T13:18:41;32.85;;;18.63;;
37431;SDS011;23292;51.300;6.252;2023-02-15T13:21:15;34.35;;;19.38;;
37431;SDS011;23292;51.300;6.252;2023-02-15T13:23:49;31.10;;;18.95;;
37431;SDS011;23292;51.300;6.252;2023-02-15T13:26:20;34.53;;;19.08;;
37431;SDS011;23292;51.300;6.252;2023-02-15T13:28:50;34.13;;;18.52;;
37431;SDS011;23292;51.300;6.252;2023-02-15T13:31:23;37.63;;;18.02;;
37431;SDS011;23292;51.300;6.252;2023-02-15T13:33:56;41.13;;;19.55;;
37431;SDS011;23292;51.300;6.252;2023-02-15T13:36:41;36.88;;;18.70;;
37431;SDS011;23292;51.300;6.252;2023-02-15T13:39:22;40.85;;;19.30;;
37431;SDS011;23292;51.300;6.252;2023-02-15T13:42:00;34.58;;;18.65;;
37431;SDS011;23292;51.300;6.252;2023-02-15T13:47:27;36.33;;;18.95;;
37431;SDS011;23292;51.300;6.252;2023-02-15T13:52:57;38.67;;;17.38;;
37431;SDS011;23292;51.300;6.252;2023-02-15T13:55:40;34.55;;;18.98;;
37431;SDS011;23292;51.300;6.252;2023-02-15T13:58:26;34.38;;;18.45;;
37431;SDS011;23292;51.300;6.252;2023-02-15T14:09:38;34.57;;;18.37;;
37431;SDS011;23292;51.300;6.252;2023-02-15T14:15:18;42.65;;;19.90;;
37431;SDS011;23292;51.300;6.252;2023-02-15T14:17:55;34.28;;;19.90;;
37431;SDS011;23292;51.300;6.252;2023-02-15T14:20:47;34.85;;;18.40;;
37431;SDS011;23292;51.300;6.252;2023-02-15T14:23:29;33.17;;;18.48;;
37431;SDS011;23292;51.300;6.252;2023-02-15T14:31:43;34.67;;;19.42;;
37431;SDS011;23292;51.300;6.252;2023-02-15T14:34:21;37.08;;;17.95;;
37431;SDS011;23292;51.300;6.252;2023-02-15T14:37:01;36.17;;;18.05;;
37431;SDS011;23292;51.300;6.252;2023-02-15T14:39:41;37.17;;;16.88;;
37431;SDS011;23292;51.300;6.252;2023-02-15T14:42:41;33.53;;;17.13;;
37431;SDS011;23292;51.300;6.252;2023-02-15T14:48:01;39.67;;;19.40;;
37431;SDS011;23292;51.300;6.252;2023-02-15T14:50:38;34.40;;;18.40;;
37431;SDS011;23292;51.300;6.252;2023-02-15T14:53:32;34.88;;;17.27;;
37431;SDS011;23292;51.300;6.252;2023-02-15T14:56:17;34.85;;;18.05;;
37431;SDS011;23292;51.300;6.252;2023-02-15T15:01:16;38.75;;;16.92;;
37431;SDS011;23292;51.300;6.252;2023-02-15T15:03:59;32.08;;;17.52;;
37431;SDS011;23292;51.300;6.252;2023-02-15T15:06:55;31.42;;;16.65;;
37431;SDS011;23292;51.300;6.252;2023-02-15T15:09:27;31.58;;;17.13;;
37431;SDS011;23292;51.300;6.252;2023-02-15T15:12:42;33.05;;;15.57;;
37431;SDS011;23292;51.300;6.252;2023-02-15T15:14:52;37.88;;;15.88;;
37431;SDS011;23292;51.300;6.252;2023-02-15T15:22:40;45.70;;;21.60;;
37431;SDS011;23292;51.300;6.252;2023-02-15T15:25:10;46.95;;;21.40;;
37431;SDS011;23292;51.300;6.252;2023-02-15T15:27:55;54.90;;;24.63;;
37431;SDS011;23292;51.300;6.252;2023-02-15T15:35:35;31.83;;;15.98;;
37431;SDS011;23292;51.300;6.252;2023-02-15T15:49:50;32.05;;;16.38;;
37431;SDS011;23292;51.300;6.252;2023-02-15T15:52:22;34.22;;;17.33;;
37431;SDS011;23292;51.300;6.252;2023-02-15T15:54:51;36.00;;;17.92;;
37431;SDS011;23292;51.300;6.252;2023-02-15T16:00:00;31.30;;;16.80;;
37431;SDS011;23292;51.300;6.252;2023-02-15T16:02:46;35.20;;;16.65;;
37431;SDS011;23292;51.300;6.252;2023-02-15T16:05:17;34.60;;;18.67;;
37431;SDS011;23292;51.300;6.252;2023-02-15T16:07:44;34.20;;;18.15;;
37431;SDS011;23292;51.300;6.252;2023-02-15T16:12:50;35.17;;;19.42;;
37431;SDS011;23292;51.300;6.252;2023-02-15T16:15:19;36.58;;;18.42;;
37431;SDS011;23292;51.300;6.252;2023-02-15T16:17:51;35.45;;;18.77;;
37431;SDS011;23292;51.300;6.252;2023-02-15T16:20:22;39.00;;;20.45;;
37431;SDS011;23292;51.300;6.252;2023-02-15T16:28:36;42.28;;;23.50;;
37431;SDS011;23292;51.300;6.252;2023-02-15T16:31:06;41.00;;;21.83;;
37431;SDS011;23292;51.300;6.252;2023-02-15T16:33:38;39.47;;;21.77;;
37431;SDS011;23292;51.300;6.252;2023-02-15T16:36:10;45.17;;;21.42;;
37431;SDS011;23292;51.300;6.252;2023-02-15T16:41:09;38.53;;;21.08;;
37431;SDS011;23292;51.300;6.252;2023-02-15T16:43:38;40.25;;;21.55;;
37431;SDS011;23292;51.300;6.252;2023-02-15T16:46:12;42.20;;;21.23;;
37431;SDS011;23292;51.300;6.252;2023-02-15T16:48:48;40.38;;;20.38;;
37431;SDS011;23292;51.300;6.252;2023-02-15T16:51:21;36.35;;;19.83;;
37431;SDS011;23292;51.300;6.252;2023-02-15T16:53:54;38.83;;;20.55;;
37431;SDS011;23292;51.300;6.252;2023-02-15T16:56:26;35.60;;;19.92;;
37431;SDS011;23292;51.300;6.252;2023-02-15T16:58:56;38.63;;;20.17;;
37431;SDS011;23292;51.300;6.252;2023-02-15T17:01:26;38.78;;;20.00;;
37431;SDS011;23292;51.300;6.252;2023-02-15T17:07:03;38.08;;;19.80;;
37431;SDS011;23292;51.300;6.252;2023-02-15T17:09:30;43.78;;;20.77;;
37431;SDS011;23292;51.300;6.252;2023-02-15T17:11:58;43.17;;;22.52;;
37431;SDS011;23292;51.300;6.252;2023-02-15T17:14:31;38.97;;;20.67;;
37431;SDS011;23292;51.300;6.252;2023-02-15T17:17:12;40.22;;;22.67;;
37431;SDS011;23292;51.300;6.252;2023-02-15T17:19:50;41.05;;;22.02;;
37431;SDS011;23292;51.300;6.252;2023-02-15T17:22:21;41.08;;;22.48;;
37431;SDS011;23292;51.300;6.252;2023-02-15T17:24:50;39.45;;;22.90;;
37431;SDS011;23292;51.300;6.252;2023-02-15T17:27:28;45.47;;;22.85;;
37431;SDS011;23292;51.300;6.252;2023-02-15T17:30:15;41.67;;;21.85;;
37431;SDS011;23292;51.300;6.252;2023-02-15T17:32:53;44.22;;;22.23;;
37431;SDS011;23292;51.300;6.252;2023-02-15T17:35:29;45.67;;;21.55;;
37431;SDS011;23292;51.300;6.252;2023-02-15T17:40:33;45.60;;;21.65;;
37431;SDS011;23292;51.300;6.252;2023-02-15T17:43:01;37.45;;;20.67;;
37431;SDS011;23292;51.300;6.252;2023-02-15T17:45:35;42.30;;;21.67;;